sensor_id;sensor_type;location;lat;lon;timestamp;pressure;altitude;pressure_sealevel;temperature;humidity
13434;BME280;6789;47.678;9.158;2023-02-23T00:00:01;96470.44;;;9.69;100.00
13434;BME280;6789;47.678;9.158;2023-02-23T00:05:07;96476.59;;;9.86;100.00
13434;BME280;6789;47.678;9.158;2023-02-23T00:10:00;96475.94;;;9.90;100.00
13434;BME280;6789;47.678;9.158;2023-02-23T00:14:52;96481.91;;;9.68;100.00
13434;BME280;6789;47.678;9.158;2023-02-23T00:19:46;96479.50;;;9.55;100.00
13434;BME280;6789;47.678;9.158;2023-02-23T00:24:40;96479.38;;;9.50;100.00
13434;BME280;6789;47.678;9.158;2023-02-23T00:29:33;96477.19;;;9.47;100.00
13434;BME280;6789;47.678;9.158;2023-02-23T00:34:30;96463.31;;;9.46;100.00
13434;BME280;6789;47.678;9.158;2023-02-23T00:39:22;96474.44;;;9.42;100.00
13434;BME280;6789;47.678;9.158;2023-02-23T00:44:21;96472.06;;;9.40;100.00
13434;BME280;6789;47.678;9.158;2023-02-23T00:49:14;96482.53;;;9.40;100.00
13434;BME280;6789;47.678;9.158;2023-02-23T00:54:06;96487.53;;;9.42;100.00
13434;BME280;6789;47.678;9.158;2023-02-23T00:58:58;96478.44;;;9.44;100.00
13434;BME280;6789;47.678;9.158;2023-02-23T01:03:51;96461.94;;;9.44;100.00
13434;BME280;6789;47.678;9.158;2023-02-23T01:09:00;96467.91;;;9.62;100.00
13434;BME280;6789;47.678;9.158;2023-02-23T01:13:58;96467.78;;;9.57;100.00
13434;BME280;6789;47.678;9.158;2023-02-23T01:18:50;96467.88;;;9.51;100.00
13434;BME280;6789;47.678;9.158;2023-02-23T01:23:42;96466.53;;;9.48;100.00
13434;BME280;6789;47.678;9.158;2023-02-23T01:28:34;96462.19;;;9.42;100.00
13434;BME280;6789;47.678;9.158;2023-02-23T01:33:26;96458.28;;;9.33;100.00
13434;BME280;6789;47.678;9.158;2023-02-23T01:38:17;96456.44;;;9.34;100.00
13434;BME280;6789;47.678;9.158;2023-02-23T01:43:19;96452.25;;;9.33;100.00
13434;BME280;6789;47.678;9.158;2023-02-23T01:48:20;96443.59;;;9.32;100.00
13434;BME280;6789;47.678;9.158;2023-02-23T01:53:12;96444.94;;;9.35;100.00
13434;BME280;6789;47.678;9.158;2023-02-23T01:58:10;96436.56;;;9.33;100.00
13434;BME280;6789;47.678;9.158;2023-02-23T02:03:11;96433.34;;;9.31;100.00
13434;BME280;6789;47.678;9.158;2023-02-23T02:08:07;96435.72;;;9.32;100.00
13434;BME280;6789;47.678;9.158;2023-02-23T02:13:02;96421.06;;;9.31;100.00
13434;BME280;6789;47.678;9.158;2023-02-23T02:18:17;96417.06;;;9.29;100.00
13434;BME280;6789;47.678;9.158;2023-02-23T02:24:07;96425.38;;;9.26;100.00
13434;BME280;6789;47.678;9.158;2023-02-23T02:41:12;96406.78;;;9.16;100.00
13434;BME280;6789;47.678;9.158;2023-02-23T02:46:29;96402.03;;;9.13;100.00
13434;BME280;6789;47.678;9.158;2023-02-23T02:51:30;96397.94;;;9.17;100.00
13434;BME280;6789;47.678;9.158;2023-02-23T02:56:26;96394.53;;;9.17;100.00
13434;BME280;6789;47.678;9.158;2023-02-23T03:01:19;96392.81;;;9.11;100.00
13434;BME280;6789;47.678;9.158;2023-02-23T03:06:45;96388.13;;;9.01;100.00
13434;BME280;6789;47.678;9.158;2023-02-23T03:12:15;96394.53;;;8.87;100.00
13434;BME280;6789;47.678;9.158;2023-02-23T03:17:45;96384.84;;;8.76;100.00
13434;BME280;6789;47.678;9.158;2023-02-23T03:23:11;96383.16;;;8.64;100.00
13434;BME280;6789;47.678;9.158;2023-02-23T03:28:32;96386.38;;;8.66;100.00
13434;BME280;6789;47.678;9.158;2023-02-23T03:34:09;96384.53;;;8.66;100.00
13434;BME280;6789;47.678;9.158;2023-02-23T03:39:52;96389.78;;;8.66;100.00
13434;BME280;6789;47.678;9.158;2023-02-23T03:45:11;96391.38;;;8.67;100.00
13434;BME280;6789;47.678;9.158;2023-02-23T03:50:39;96384.28;;;8.56;100.00
13434;BME280;6789;47.678;9.158;2023-02-23T03:55:54;96385.94;;;8.51;100.00
13434;BME280;6789;47.678;9.158;2023-02-23T04:01:09;96386.03;;;8.45;100.00
13434;BME280;6789;47.678;9.158;2023-02-23T04:06:25;96385.72;;;8.35;100.00
13434;BME280;6789;47.678;9.158;2023-02-23T04:11:49;96389.53;;;8.21;100.00
13434;BME280;6789;47.678;9.158;2023-02-23T04:17:03;96388.72;;;8.20;100.00
13434;BME280;6789;47.678;9.158;2023-02-23T04:21:55;96385.97;;;8.15;100.00
13434;BME280;6789;47.678;9.158;2023-02-23T04:26:46;96386.31;;;8.19;100.00
13434;BME280;6789;47.678;9.158;2023-02-23T04:31:38;96383.50;;;8.20;100.00
13434;BME280;6789;47.678;9.158;2023-02-23T04:36:32;96380.75;;;8.15;100.00
13434;BME280;6789;47.678;9.158;2023-02-23T04:41:24;96389.03;;;8.06;100.00
13434;BME280;6789;47.678;9.158;2023-02-23T04:46:15;96384.09;;;7.98;100.00
13434;BME280;6789;47.678;9.158;2023-02-23T04:51:07;96391.38;;;7.96;100.00
13434;BME280;6789;47.678;9.158;2023-02-23T04:55:59;96393.16;;;7.95;100.00
13434;BME280;6789;47.678;9.158;2023-02-23T05:00:51;96393.38;;;7.94;100.00
13434;BME280;6789;47.678;9.158;2023-02-23T05:05:50;96389.53;;;7.96;100.00
13434;BME280;6789;47.678;9.158;2023-02-23T05:10:56;96385.78;;;7.92;100.00
13434;BME280;6789;47.678;9.158;2023-02-23T05:16:02;96385.56;;;7.94;100.00
13434;BME280;6789;47.678;9.158;2023-02-23T05:21:09;96370.31;;;7.91;100.00
13434;BME280;6789;47.678;9.158;2023-02-23T05:26:16;96375.38;;;7.86;100.00
13434;BME280;6789;47.678;9.158;2023-02-23T05:31:12;96374.22;;;7.82;100.00
13434;BME280;6789;47.678;9.158;2023-02-23T05:36:07;96367.69;;;7.73;100.00
13434;BME280;6789;47.678;9.158;2023-02-23T05:41:12;96363.31;;;7.67;100.00
13434;BME280;6789;47.678;9.158;2023-02-23T05:46:22;96371.59;;;7.64;100.00
13434;BME280;6789;47.678;9.158;2023-02-23T05:51:17;96366.94;;;7.66;100.00
13434;BME280;6789;47.678;9.158;2023-02-23T05:56:23;96366.59;;;7.63;100.00
13434;BME280;6789;47.678;9.158;2023-02-23T06:01:17;96361.56;;;7.61;100.00
13434;BME280;6789;47.678;9.158;2023-02-23T06:06:14;96368.50;;;7.49;100.00
13434;BME280;6789;47.678;9.158;2023-02-23T06:11:22;96373.72;;;7.49;100.00
13434;BME280;6789;47.678;9.158;2023-02-23T06:16:28;96374.94;;;7.47;100.00
13434;BME280;6789;47.678;9.158;2023-02-23T06:21:24;96374.16;;;7.46;100.00
13434;BME280;6789;47.678;9.158;2023-02-23T06:26:17;96379.75;;;7.50;100.00
13434;BME280;6789;47.678;9.158;2023-02-23T06:31:11;96381.13;;;7.52;100.00
13434;BME280;6789;47.678;9.158;2023-02-23T06:36:16;96384.13;;;7.56;100.00
13434;BME280;6789;47.678;9.158;2023-02-23T06:41:23;96388.75;;;7.54;100.00
13434;BME280;6789;47.678;9.158;2023-02-23T06:46:23;96391.56;;;7.52;100.00
13434;BME280;6789;47.678;9.158;2023-02-23T06:51:30;96397.19;;;7.49;100.00
13434;BME280;6789;47.678;9.158;2023-02-23T06:56:30;96390.56;;;7.53;100.00
13434;BME280;6789;47.678;9.158;2023-02-23T07:01:36;96394.75;;;7.54;100.00
13434;BME280;6789;47.678;9.158;2023-02-23T07:06:42;96402.16;;;7.57;100.00
13434;BME280;6789;47.678;9.158;2023-02-23T07:11:48;96411.78;;;7.57;100.00
13434;BME280;6789;47.678;9.158;2023-02-23T07:16:54;96404.91;;;7.62;100.00
13434;BME280;6789;47.678;9.158;2023-02-23T07:21:59;96403.66;;;7.71;100.00
13434;BME280;6789;47.678;9.158;2023-02-23T07:27:05;96406.06;;;7.90;100.00
13434;BME280;6789;47.678;9.158;2023-02-23T07:31:59;96419.91;;;7.91;100.00
13434;BME280;6789;47.678;9.158;2023-02-23T07:37:20;96419.41;;;8.00;100.00
13434;BME280;6789;47.678;9.158;2023-02-23T07:42:13;96426.56;;;8.11;100.00
13434;BME280;6789;47.678;9.158;2023-02-23T07:47:19;96430.56;;;8.14;100.00
13434;BME280;6789;47.678;9.158;2023-02-23T07:52:11;96434.13;;;8.19;100.00
13434;BME280;6789;47.678;9.158;2023-02-23T07:57:03;96434.16;;;8.13;100.00
13434;BME280;6789;47.678;9.158;2023-02-23T08:02:12;96429.72;;;8.20;100.00
13434;BME280;6789;47.678;9.158;2023-02-23T08:07:19;96423.19;;;8.29;100.00
13434;BME280;6789;47.678;9.158;2023-02-23T08:12:25;96427.97;;;8.32;100.00
13434;BME280;6789;47.678;9.158;2023-02-23T08:17:31;96425.09;;;8.40;100.00
13434;BME280;6789;47.678;9.158;2023-02-23T08:22:37;96439.03;;;8.52;100.00
13434;BME280;6789;47.678;9.158;2023-02-23T08:27:40;96454.59;;;8.58;100.00
13434;BME280;6789;47.678;9.158;2023-02-23T08:32:33;96461.91;;;8.85;100.00
13434;BME280;6789;47.678;9.158;2023-02-23T08:37:41;96464.97;;;9.00;100.00
13434;BME280;6789;47.678;9.158;2023-02-23T08:42:43;96478.00;;;9.18;100.00
13434;BME280;6789;47.678;9.158;2023-02-23T08:47:37;96467.31;;;9.49;100.00
13434;BME280;6789;47.678;9.158;2023-02-23T08:52:32;96479.88;;;9.70;100.00
13434;BME280;6789;47.678;9.158;2023-02-23T08:57:38;96491.88;;;9.89;100.00
13434;BME280;6789;47.678;9.158;2023-02-23T09:02:54;96500.41;;;9.84;100.00
13434;BME280;6789;47.678;9.158;2023-02-23T09:08:17;96498.31;;;10.15;100.00
13434;BME280;6789;47.678;9.158;2023-02-23T09:14:00;96501.81;;;10.09;100.00
13434;BME280;6789;47.678;9.158;2023-02-23T09:20:21;96520.19;;;10.55;100.00
13434;BME280;6789;47.678;9.158;2023-02-23T09:25:31;96517.06;;;10.92;100.00
13434;BME280;6789;47.678;9.158;2023-02-23T09:30:38;96524.16;;;11.31;100.00
13434;BME280;6789;47.678;9.158;2023-02-23T09:35:48;96525.66;;;11.66;100.00
13434;BME280;6789;47.678;9.158;2023-02-23T09:40:54;96534.63;;;11.98;100.00
13434;BME280;6789;47.678;9.158;2023-02-23T09:46:08;96527.47;;;12.10;99.14
13434;BME280;6789;47.678;9.158;2023-02-23T09:51:23;96539.19;;;12.35;96.59
13434;BME280;6789;47.678;9.158;2023-02-23T09:56:24;96521.97;;;12.61;94.99
13434;BME280;6789;47.678;9.158;2023-02-23T10:23:59;96518.38;;;13.26;90.01
13434;BME280;6789;47.678;9.158;2023-02-23T10:29:34;96516.78;;;13.03;89.33
13434;BME280;6789;47.678;9.158;2023-02-23T10:34:44;96504.25;;;13.58;86.83
13434;BME280;6789;47.678;9.158;2023-02-23T10:39:53;96508.63;;;13.48;87.45
13434;BME280;6789;47.678;9.158;2023-02-23T10:44:48;96507.56;;;13.75;85.61
13434;BME280;6789;47.678;9.158;2023-02-23T10:49:58;96507.97;;;13.62;84.30
13434;BME280;6789;47.678;9.158;2023-02-23T10:55:22;96505.41;;;13.46;85.66
13434;BME280;6789;47.678;9.158;2023-02-23T11:01:00;96497.16;;;13.37;86.21
13434;BME280;6789;47.678;9.158;2023-02-23T11:12:35;96489.91;;;13.01;84.59
13434;BME280;6789;47.678;9.158;2023-02-23T11:17:42;96485.19;;;13.03;82.89
13434;BME280;6789;47.678;9.158;2023-02-23T11:22:44;96480.34;;;13.17;82.08
13434;BME280;6789;47.678;9.158;2023-02-23T11:27:52;96482.34;;;13.31;81.37
13434;BME280;6789;47.678;9.158;2023-02-23T11:33:04;96473.13;;;13.07;83.77
13434;BME280;6789;47.678;9.158;2023-02-23T11:38:23;96454.44;;;13.56;81.68
13434;BME280;6789;47.678;9.158;2023-02-23T11:43:36;96447.41;;;13.93;78.99
13434;BME280;6789;47.678;9.158;2023-02-23T11:49:03;96447.75;;;14.07;76.68
13434;BME280;6789;47.678;9.158;2023-02-23T11:54:33;96440.00;;;14.22;76.76
13434;BME280;6789;47.678;9.158;2023-02-23T11:59:42;96433.91;;;14.21;75.63
13434;BME280;6789;47.678;9.158;2023-02-23T12:05:12;96430.66;;;14.45;74.08
13434;BME280;6789;47.678;9.158;2023-02-23T12:10:40;96428.06;;;14.60;73.42
13434;BME280;6789;47.678;9.158;2023-02-23T12:21:46;96416.63;;;14.40;72.13
13434;BME280;6789;47.678;9.158;2023-02-23T12:27:09;96414.56;;;14.52;71.86
13434;BME280;6789;47.678;9.158;2023-02-23T12:32:25;96413.78;;;14.51;71.78
13434;BME280;6789;47.678;9.158;2023-02-23T12:37:28;96408.72;;;14.45;72.11
13434;BME280;6789;47.678;9.158;2023-02-23T12:43:05;96406.44;;;14.53;72.00
13434;BME280;6789;47.678;9.158;2023-02-23T12:53:40;96396.97;;;13.85;73.64
13434;BME280;6789;47.678;9.158;2023-02-23T12:59:50;96399.06;;;13.52;74.88
13434;BME280;6789;47.678;9.158;2023-02-23T13:04:56;96397.41;;;13.72;74.64
13434;BME280;6789;47.678;9.158;2023-02-23T13:21:16;96384.41;;;13.97;74.21
13434;BME280;6789;47.678;9.158;2023-02-23T13:27:25;96381.69;;;13.87;74.19
13434;BME280;6789;47.678;9.158;2023-02-23T13:32:34;96378.63;;;14.00;73.78
13434;BME280;6789;47.678;9.158;2023-02-23T13:37:59;96367.69;;;14.18;73.15
13434;BME280;6789;47.678;9.158;2023-02-23T13:43:33;96375.66;;;14.23;72.30
13434;BME280;6789;47.678;9.158;2023-02-23T13:54:22;96367.81;;;14.42;72.27
13434;BME280;6789;47.678;9.158;2023-02-23T13:59:40;96363.34;;;14.43;71.33
13434;BME280;6789;47.678;9.158;2023-02-23T14:04:50;96360.19;;;14.46;70.91
13434;BME280;6789;47.678;9.158;2023-02-23T14:10:19;96367.03;;;14.42;71.01
13434;BME280;6789;47.678;9.158;2023-02-23T14:15:49;96350.88;;;14.28;71.52
13434;BME280;6789;47.678;9.158;2023-02-23T14:31:34;96346.28;;;13.73;73.11
13434;BME280;6789;47.678;9.158;2023-02-23T14:36:43;96348.56;;;13.96;72.68
13434;BME280;6789;47.678;9.158;2023-02-23T14:41:57;96354.09;;;13.99;72.25
13434;BME280;6789;47.678;9.158;2023-02-23T14:47:11;96347.94;;;13.84;72.96
13434;BME280;6789;47.678;9.158;2023-02-23T14:52:39;96343.16;;;14.12;71.25
13434;BME280;6789;47.678;9.158;2023-02-23T14:57:47;96338.91;;;14.11;71.32
13434;BME280;6789;47.678;9.158;2023-02-23T15:03:06;96344.38;;;14.05;71.50
13434;BME280;6789;47.678;9.158;2023-02-23T15:08:22;96333.94;;;13.83;71.60
13434;BME280;6789;47.678;9.158;2023-02-23T15:13:40;96333.28;;;13.61;72.46
13434;BME280;6789;47.678;9.158;2023-02-23T15:18:49;96339.63;;;13.65;72.89
13434;BME280;6789;47.678;9.158;2023-02-23T15:24:25;96339.66;;;13.70;72.02
13434;BME280;6789;47.678;9.158;2023-02-23T15:29:49;96340.84;;;13.53;72.63
13434;BME280;6789;47.678;9.158;2023-02-23T15:34:55;96336.66;;;13.57;72.87
13434;BME280;6789;47.678;9.158;2023-02-23T15:40:06;96331.22;;;13.37;73.02
13434;BME280;6789;47.678;9.158;2023-02-23T15:45:39;96337.00;;;13.34;71.64
13434;BME280;6789;47.678;9.158;2023-02-23T15:51:01;96341.16;;;13.30;70.68
13434;BME280;6789;47.678;9.158;2023-02-23T15:56:38;96338.75;;;13.24;70.41
13434;BME280;6789;47.678;9.158;2023-02-23T16:01:46;96337.13;;;13.18;69.71
13434;BME280;6789;47.678;9.158;2023-02-23T16:07:06;96336.75;;;13.04;69.93
13434;BME280;6789;47.678;9.158;2023-02-23T16:12:22;96336.03;;;12.87;69.74
13434;BME280;6789;47.678;9.158;2023-02-23T16:18:16;96337.97;;;12.76;70.21
13434;BME280;6789;47.678;9.158;2023-02-23T16:23:42;96336.09;;;12.71;69.68
13434;BME280;6789;47.678;9.158;2023-02-23T16:28:57;96332.97;;;12.53;70.29
13434;BME280;6789;47.678;9.158;2023-02-23T16:34:23;96334.38;;;12.39;70.81
13434;BME280;6789;47.678;9.158;2023-02-23T16:39:32;96330.00;;;12.23;71.06
13434;BME280;6789;47.678;9.158;2023-02-23T16:44:39;96334.72;;;12.05;72.72
13434;BME280;6789;47.678;9.158;2023-02-23T16:49:36;96332.38;;;11.87;73.51
13434;BME280;6789;47.678;9.158;2023-02-23T16:54:42;96335.25;;;11.69;74.08
13434;BME280;6789;47.678;9.158;2023-02-23T16:59:51;96334.00;;;11.55;75.13
13434;BME280;6789;47.678;9.158;2023-02-23T17:05:00;96337.16;;;11.40;76.11
13434;BME280;6789;47.678;9.158;2023-02-23T17:10:09;96341.75;;;11.34;77.48
13434;BME280;6789;47.678;9.158;2023-02-23T17:15:24;96341.03;;;11.22;78.40
13434;BME280;6789;47.678;9.158;2023-02-23T17:20:33;96352.31;;;11.06;79.39
13434;BME280;6789;47.678;9.158;2023-02-23T17:25:41;96358.69;;;10.82;81.48
13434;BME280;6789;47.678;9.158;2023-02-23T17:30:48;96360.69;;;10.64;83.06
13434;BME280;6789;47.678;9.158;2023-02-23T17:35:54;96360.63;;;10.47;84.17
13434;BME280;6789;47.678;9.158;2023-02-23T17:41:02;96374.47;;;10.31;85.34
13434;BME280;6789;47.678;9.158;2023-02-23T17:46:11;96369.22;;;10.20;86.18
13434;BME280;6789;47.678;9.158;2023-02-23T17:51:19;96374.28;;;10.10;87.08
13434;BME280;6789;47.678;9.158;2023-02-23T17:56:26;96376.19;;;9.92;88.32
13434;BME280;6789;47.678;9.158;2023-02-23T18:01:36;96382.31;;;9.74;89.06
13434;BME280;6789;47.678;9.158;2023-02-23T18:06:42;96385.69;;;9.52;90.30
13434;BME280;6789;47.678;9.158;2023-02-23T18:11:49;96384.78;;;9.35;91.84
13434;BME280;6789;47.678;9.158;2023-02-23T18:16:55;96388.59;;;9.21;92.55
13434;BME280;6789;47.678;9.158;2023-02-23T18:22:02;96400.16;;;9.43;92.91
13434;BME280;6789;47.678;9.158;2023-02-23T18:27:11;96402.84;;;9.25;93.27
13434;BME280;6789;47.678;9.158;2023-02-23T18:32:18;96403.88;;;9.24;93.65
13434;BME280;6789;47.678;9.158;2023-02-23T18:37:20;96415.09;;;9.13;94.47
13434;BME280;6789;47.678;9.158;2023-02-23T18:42:29;96404.34;;;8.92;95.02
13434;BME280;6789;47.678;9.158;2023-02-23T18:47:24;96402.97;;;8.71;96.51
13434;BME280;6789;47.678;9.158;2023-02-23T18:52:30;96399.50;;;8.59;97.25
13434;BME280;6789;47.678;9.158;2023-02-23T18:57:35;96410.69;;;8.49;98.04
13434;BME280;6789;47.678;9.158;2023-02-23T19:02:44;96407.66;;;8.34;99.84
13434;BME280;6789;47.678;9.158;2023-02-23T19:07:39;96409.19;;;8.23;100.00
13434;BME280;6789;47.678;9.158;2023-02-23T19:12:45;96414.47;;;8.17;100.00
13434;BME280;6789;47.678;9.158;2023-02-23T19:17:52;96411.28;;;8.15;100.00
13434;BME280;6789;47.678;9.158;2023-02-23T19:22:59;96406.47;;;8.12;100.00
13434;BME280;6789;47.678;9.158;2023-02-23T19:28:05;96403.69;;;8.07;100.00
13434;BME280;6789;47.678;9.158;2023-02-23T19:33:15;96396.22;;;7.92;100.00
13434;BME280;6789;47.678;9.158;2023-02-23T19:38:21;96404.03;;;7.75;100.00
13434;BME280;6789;47.678;9.158;2023-02-23T19:43:27;96399.09;;;7.60;100.00
13434;BME280;6789;47.678;9.158;2023-02-23T19:48:34;96405.19;;;7.54;100.00
13434;BME280;6789;47.678;9.158;2023-02-23T19:53:41;96405.47;;;7.46;100.00
13434;BME280;6789;47.678;9.158;2023-02-23T19:58:47;96414.75;;;7.36;100.00
13434;BME280;6789;47.678;9.158;2023-02-23T20:03:55;96406.81;;;7.24;100.00
13434;BME280;6789;47.678;9.158;2023-02-23T20:09:06;96407.63;;;7.25;100.00
13434;BME280;6789;47.678;9.158;2023-02-23T20:14:15;96420.44;;;7.26;100.00
13434;BME280;6789;47.678;9.158;2023-02-23T20:19:21;96411.63;;;7.27;100.00
13434;BME280;6789;47.678;9.158;2023-02-23T20:24:27;96411.66;;;7.21;100.00
13434;BME280;6789;47.678;9.158;2023-02-23T20:29:33;96404.44;;;7.16;100.00
13434;BME280;6789;47.678;9.158;2023-02-23T20:34:32;96409.63;;;7.23;100.00
13434;BME280;6789;47.678;9.158;2023-02-23T20:39:40;96406.28;;;7.16;100.00
13434;BME280;6789;47.678;9.158;2023-02-23T20:44:46;96409.56;;;7.05;100.00
13434;BME280;6789;47.678;9.158;2023-02-23T20:49:52;96417.66;;;6.91;100.00
13434;BME280;6789;47.678;9.158;2023-02-23T20:54:59;96411.91;;;6.76;100.00
13434;BME280;6789;47.678;9.158;2023-02-23T21:00:08;96412.31;;;6.73;100.00
13434;BME280;6789;47.678;9.158;2023-02-23T21:05:15;96413.53;;;6.70;100.00
13434;BME280;6789;47.678;9.158;2023-02-23T21:10:21;96409.56;;;6.68;100.00
13434;BME280;6789;47.678;9.158;2023-02-23T21:15:31;96412.19;;;6.61;100.00
13434;BME280;6789;47.678;9.158;2023-02-23T21:20:40;96416.41;;;6.56;100.00
13434;BME280;6789;47.678;9.158;2023-02-23T21:25:47;96423.66;;;6.54;100.00
13434;BME280;6789;47.678;9.158;2023-02-23T21:30:53;96421.50;;;6.44;100.00
13434;BME280;6789;47.678;9.158;2023-02-23T21:36:03;96406.47;;;6.40;100.00
13434;BME280;6789;47.678;9.158;2023-02-23T21:41:12;96419.72;;;6.38;100.00
13434;BME280;6789;47.678;9.158;2023-02-23T21:46:20;96400.28;;;6.35;100.00
13434;BME280;6789;47.678;9.158;2023-02-23T21:51:28;96403.31;;;6.32;100.00
13434;BME280;6789;47.678;9.158;2023-02-23T21:56:35;96395.13;;;6.22;100.00
13434;BME280;6789;47.678;9.158;2023-02-23T22:01:41;96392.72;;;6.20;100.00
13434;BME280;6789;47.678;9.158;2023-02-23T22:06:42;96396.75;;;6.10;100.00
13434;BME280;6789;47.678;9.158;2023-02-23T22:11:36;96391.59;;;5.90;100.00
13434;BME280;6789;47.678;9.158;2023-02-23T22:16:33;96390.22;;;5.81;100.00
13434;BME280;6789;47.678;9.158;2023-02-23T22:21:44;96389.59;;;5.73;100.00
13434;BME280;6789;47.678;9.158;2023-02-23T22:26:52;96380.22;;;5.65;100.00
13434;BME280;6789;47.678;9.158;2023-02-23T22:32:00;96374.81;;;5.61;100.00
13434;BME280;6789;47.678;9.158;2023-02-23T22:37:06;96368.81;;;5.54;100.00
13434;BME280;6789;47.678;9.158;2023-02-23T22:42:44;96364.59;;;5.59;100.00
13434;BME280;6789;47.678;9.158;2023-02-23T22:47:54;96363.00;;;5.64;100.00
13434;BME280;6789;47.678;9.158;2023-02-23T22:52:52;96357.03;;;5.64;100.00
13434;BME280;6789;47.678;9.158;2023-02-23T22:57:45;96343.00;;;5.52;100.00
13434;BME280;6789;47.678;9.158;2023-02-23T23:02:52;96348.63;;;5.43;100.00
13434;BME280;6789;47.678;9.158;2023-02-23T23:07:45;96347.03;;;5.35;100.00
13434;BME280;6789;47.678;9.158;2023-02-23T23:12:52;96337.84;;;5.26;100.00
13434;BME280;6789;47.678;9.158;2023-02-23T23:17:45;96330.66;;;5.22;100.00
13434;BME280;6789;47.678;9.158;2023-02-23T23:22:42;96329.84;;;5.15;100.00
13434;BME280;6789;47.678;9.158;2023-02-23T23:27:49;96323.06;;;5.14;100.00
13434;BME280;6789;47.678;9.158;2023-02-23T23:32:43;96328.84;;;5.09;100.00
13434;BME280;6789;47.678;9.158;2023-02-23T23:37:38;96332.47;;;4.95;100.00
13434;BME280;6789;47.678;9.158;2023-02-23T23:42:36;96330.84;;;4.88;100.00
13434;BME280;6789;47.678;9.158;2023-02-23T23:47:45;96323.84;;;4.82;100.00
13434;BME280;6789;47.678;9.158;2023-02-23T23:52:51;96322.06;;;4.83;100.00
13434;BME280;6789;47.678;9.158;2023-02-23T23:57:48;96318.25;;;4.85;100.00
